Time;durP1;ratioP1;P1;durP2;ratioP2;P2;SDS_P1;SDS_P2;PMS_P1;PMS_P2;Temp;Humidity;BMP_temperature;BMP_pressure;BME280_temperature;BME280_humidity;BME280_pressure;Samples;Min_cycle;Max_cycle;Signal;HPM_P1;HPM_P2
2022/09/19 00:01:54;;;;;;;4.40;1.80;;;13.00;99.90;;;;;;6053606;23;20240;-78
2022/09/19 00:04:23;;;;;;;1.60;1.38;;;12.90;99.90;;;;;;6053862;23;20220;-76
2022/09/19 00:06:54;;;;;;;4.25;1.55;;;12.90;99.90;;;;;;6067840;23;20269;-79
2022/09/19 00:09:24;;;;;;;2.20;1.58;;;13.00;99.90;;;;;;6068929;23;20216;-76
2022/09/19 00:11:52;;;;;;;3.17;1.67;;;13.00;99.90;;;;;;6053300;23;20215;-77
2022/09/19 00:14:24;;;;;;;2.78;1.80;;;12.90;99.90;;;;;;6069276;23;20211;-78
2022/09/19 00:16:56;;;;;;;2.20;1.80;;;12.90;99.90;;;;;;6055227;23;20557;-78
2022/09/19 00:19:23;;;;;;;2.60;1.60;;;12.90;99.90;;;;;;6067538;23;20204;-78
2022/09/19 00:21:55;;;;;;;3.20;1.35;;;12.90;99.90;;;;;;6068328;23;20679;-78
2022/09/19 00:27:12;;;;;;;3.00;1.73;;;12.90;99.90;;;;;;6068524;23;20230;-77
2022/09/19 00:29:42;;;;;;;3.47;1.60;;;12.90;99.90;;;;;;6068383;23;20200;-78
2022/09/19 00:32:11;;;;;;;3.40;1.73;;;12.90;99.90;;;;;;6067822;23;20546;-78
2022/09/19 00:34:39;;;;;;;2.47;1.60;;;12.90;99.90;;;;;;6053410;23;20201;-77
2022/09/19 00:37:06;;;;;;;7.10;1.85;;;12.80;99.90;;;;;;6067252;23;20200;-79
2022/09/19 00:39:38;;;;;;;2.97;1.25;;;12.80;99.90;;;;;;6068165;23;20214;-78
2022/09/19 00:42:05;;;;;;;2.78;1.92;;;12.80;99.90;;;;;;6068076;23;20204;-78
2022/09/19 00:44:54;;;;;;;4.32;1.70;;;12.80;99.90;;;;;;6068066;23;20196;-79
2022/09/19 00:47:26;;;;;;;2.20;2.00;;;12.80;99.90;;;;;;6067774;23;20271;-78
2022/09/19 00:49:57;;;;;;;2.75;1.70;;;12.80;99.90;;;;;;6068639;23;20215;-78
2022/09/19 00:52:33;;;;;;;3.08;1.65;;;12.80;99.90;;;;;;6067517;23;20675;-77
2022/09/19 00:55:02;;;;;;;3.28;2.60;;;12.80;99.90;;;;;;6068333;23;20219;-77
2022/09/19 00:57:36;;;;;;;4.32;2.53;;;12.70;99.90;;;;;;6067316;23;20657;-77
2022/09/19 01:00:05;;;;;;;4.35;2.67;;;12.70;99.90;;;;;;6067970;23;20238;-78
2022/09/19 01:02:32;;;;;;;3.33;1.98;;;12.70;99.90;;;;;;6067318;23;20208;-77
2022/09/19 01:05:00;;;;;;;3.42;2.30;;;12.70;99.90;;;;;;6068340;23;20235;-76
2022/09/19 01:07:35;;;;;;;3.00;2.55;;;12.70;99.90;;;;;;6067676;23;20206;-77
2022/09/19 01:10:13;;;;;;;5.40;2.22;;;12.70;99.90;;;;;;6068479;23;20262;-77
2022/09/19 01:12:51;;;;;;;3.72;2.50;;;12.70;99.90;;;;;;6067885;23;20196;-77
2022/09/19 01:15:32;;;;;;;3.95;2.40;;;12.60;99.90;;;;;;6067654;23;20259;-77
2022/09/19 01:18:01;;;;;;;3.92;2.67;;;12.70;99.90;;;;;;6068474;23;20204;-77
2022/09/19 01:24:25;;;;;;;2.83;2.55;;;12.60;99.90;;;;;;6068047;23;20746;-77
2022/09/19 01:27:09;;;;;;;3.75;3.13;;;12.60;99.90;;;;;;6068455;23;20200;-78
2022/09/19 01:29:46;;;;;;;2.58;2.47;;;12.60;99.90;;;;;;6068020;23;20251;-76
2022/09/19 01:32:18;;;;;;;4.70;2.28;;;12.60;99.90;;;;;;6074786;23;20195;-77
2022/09/19 01:34:50;;;;;;;4.07;2.53;;;12.60;99.90;;;;;;6055358;23;20295;-78
2022/09/19 01:37:21;;;;;;;2.38;2.17;;;12.60;99.90;;;;;;6068300;23;20208;-77
2022/09/19 01:39:51;;;;;;;4.57;2.35;;;12.60;99.90;;;;;;6052024;23;20231;-77
2022/09/19 01:42:22;;;;;;;2.45;2.10;;;12.60;99.90;;;;;;6067590;23;20242;-77
2022/09/19 01:44:52;;;;;;;9.13;2.67;;;12.60;99.90;;;;;;6067734;23;20204;-77
2022/09/19 01:47:31;;;;;;;3.13;2.60;;;12.60;99.90;;;;;;6067960;23;20204;-77
2022/09/19 01:50:05;;;;;;;4.90;2.83;;;12.60;99.90;;;;;;6067366;23;20200;-77
2022/09/19 01:52:48;;;;;;;2.28;2.10;;;12.60;99.90;;;;;;6067940;23;20211;-78
2022/09/19 01:55:23;;;;;;;3.75;2.22;;;12.60;99.90;;;;;;6068020;23;20208;-76
2022/09/19 01:57:57;;;;;;;4.22;2.50;;;12.60;99.90;;;;;;6068156;23;20243;-77
2022/09/19 02:00:27;;;;;;;3.83;2.20;;;12.60;99.90;;;;;;6067300;23;20247;-78
2022/09/19 02:03:11;;;;;;;3.88;2.25;;;12.60;99.90;;;;;;6068017;23;20266;-79
2022/09/19 02:05:46;;;;;;;2.45;2.20;;;12.60;99.90;;;;;;6067394;23;20208;-77
2022/09/19 02:08:21;;;;;;;2.50;2.25;;;12.50;99.90;;;;;;6067881;23;20275;-78
2022/09/19 02:10:57;;;;;;;5.00;2.80;;;12.60;99.90;;;;;;6068109;23;20492;-77
2022/09/19 02:13:27;;;;;;;4.25;2.72;;;12.50;99.90;;;;;;6067356;23;20212;-77
2022/09/19 02:16:00;;;;;;;3.65;2.30;;;12.50;99.90;;;;;;6067781;23;20557;-76
2022/09/19 02:18:32;;;;;;;3.10;2.80;;;12.60;99.90;;;;;;6069014;23;20211;-77
2022/09/19 02:21:05;;;;;;;2.78;2.38;;;12.60;99.90;;;;;;6070431;23;20215;-76
2022/09/19 02:23:38;;;;;;;2.85;2.55;;;12.60;99.90;;;;;;6069269;23;20212;-76
2022/09/19 02:26:09;;;;;;;3.58;2.40;;;12.60;99.90;;;;;;6069875;23;20270;-76
2022/09/19 02:28:41;;;;;;;3.58;3.28;;;12.60;99.90;;;;;;6068535;23;20667;-77
2022/09/19 02:31:12;;;;;;;5.53;3.50;;;12.60;99.90;;;;;;6069084;23;20633;-76
2022/09/19 02:33:42;;;;;;;4.07;2.78;;;12.60;99.90;;;;;;6069008;23;20215;-76
2022/09/19 02:36:15;;;;;;;4.15;3.33;;;12.60;99.90;;;;;;6069643;23;20284;-77
2022/09/19 02:38:50;;;;;;;4.78;3.67;;;12.60;99.90;;;;;;6071359;23;20200;-78
2022/09/19 02:42:00;;;;;;;4.40;4.05;;;12.60;99.90;;;;;;6070016;23;20234;-78
2022/09/19 02:44:35;;;;;;;3.15;2.85;;;12.60;99.90;;;;;;6040584;23;20204;-78
2022/09/19 02:47:12;;;;;;;4.15;3.00;;;12.60;99.90;;;;;;6042888;23;20220;-76
2022/09/19 02:49:46;;;;;;;3.13;2.92;;;12.60;99.90;;;;;;6040565;23;20205;-76
2022/09/19 02:52:18;;;;;;;5.47;3.45;;;12.60;99.90;;;;;;6026798;23;20252;-78
2022/09/19 02:54:49;;;;;;;5.90;3.05;;;12.60;99.90;;;;;;6040593;23;20553;-77
2022/09/19 02:57:30;;;;;;;3.65;2.67;;;12.60;99.90;;;;;;6040358;23;20208;-78
2022/09/19 03:00:03;;;;;;;5.68;3.20;;;12.60;99.90;;;;;;6041102;23;20205;-77
2022/09/19 03:02:35;;;;;;;6.43;3.63;;;12.60;99.90;;;;;;6028862;23;20208;-77
2022/09/19 03:05:08;;;;;;;5.93;3.65;;;12.60;99.90;;;;;;6040775;23;20251;-76
2022/09/19 03:07:40;;;;;;;5.32;2.80;;;12.60;99.90;;;;;;6040122;23;20208;-76
2022/09/19 03:10:12;;;;;;;4.55;4.25;;;12.60;99.90;;;;;;6040369;23;20197;-77
2022/09/19 03:12:47;;;;;;;3.08;2.75;;;12.60;99.90;;;;;;6040346;23;20614;-78
2022/09/19 03:15:19;;;;;;;3.70;3.40;;;12.70;99.90;;;;;;6039589;23;20649;-77
2022/09/19 03:17:51;;;;;;;2.58;2.35;;;12.70;99.90;;;;;;6040414;23;20260;-75
2022/09/19 03:20:19;;;;;;;3.25;2.95;;;12.70;99.90;;;;;;6040553;23;20722;-76
2022/09/19 03:22:47;;;;;;;3.22;3.03;;;12.70;99.90;;;;;;6040924;23;20232;-78
2022/09/19 03:25:15;;;;;;;4.10;3.70;;;12.70;99.90;;;;;;6039903;23;20527;-79
2022/09/19 03:27:44;;;;;;;5.15;3.85;;;12.70;99.90;;;;;;6039662;23;20272;-77
2022/09/19 03:30:15;;;;;;;4.38;3.40;;;12.70;99.90;;;;;;6039418;23;20247;-79
2022/09/19 03:32:42;;;;;;;5.10;4.35;;;12.70;99.90;;;;;;6039971;23;20521;-78
2022/09/19 03:35:11;;;;;;;3.40;3.10;;;12.70;99.90;;;;;;6040546;23;20713;-78
2022/09/19 03:37:38;;;;;;;4.30;3.28;;;12.70;99.90;;;;;;6040102;23;20209;-79
2022/09/19 03:40:06;;;;;;;4.35;4.05;;;12.70;99.90;;;;;;6040442;23;20205;-78
2022/09/19 03:42:37;;;;;;;4.03;3.65;;;12.70;99.90;;;;;;6048104;23;20216;-77
2022/09/19 03:45:04;;;;;;;4.30;3.90;;;12.80;99.90;;;;;;6068754;23;20204;-78
2022/09/19 03:47:32;;;;;;;4.03;3.53;;;12.80;99.90;;;;;;6068138;23;20508;-77
2022/09/19 03:49:59;;;;;;;4.03;3.70;;;12.80;99.90;;;;;;6068218;23;20204;-77
2022/09/19 03:52:28;;;;;;;7.75;3.60;;;12.80;99.90;;;;;;6067659;23;20228;-78
2022/09/19 03:54:58;;;;;;;4.65;3.65;;;12.80;99.90;;;;;;6068571;23;20204;-76
2022/09/19 03:57:28;;;;;;;6.95;4.50;;;12.80;99.90;;;;;;6067142;23;20199;-78
2022/09/19 03:59:55;;;;;;;5.60;3.53;;;12.80;99.90;;;;;;6068656;23;20204;-79
2022/09/19 04:02:22;;;;;;;4.95;4.15;;;12.80;99.90;;;;;;6067539;23;20205;-79
2022/09/19 04:04:49;;;;;;;5.55;3.70;;;12.90;99.90;;;;;;6069057;23;20504;-78
2022/09/19 04:07:17;;;;;;;6.07;3.55;;;12.90;99.90;;;;;;6068517;23;20688;-78
2022/09/19 04:09:45;;;;;;;6.15;3.75;;;12.90;99.90;;;;;;6067734;23;20204;-77
2022/09/19 04:12:13;;;;;;;5.05;4.30;;;12.90;99.90;;;;;;6067727;23;20651;-79
2022/09/19 04:14:40;;;;;;;5.75;4.38;;;12.90;99.90;;;;;;6065881;23;20232;-77
2022/09/19 04:17:09;;;;;;;3.85;3.55;;;12.90;99.90;;;;;;6069127;23;20208;-77
2022/09/19 04:19:36;;;;;;;4.35;3.90;;;13.00;99.90;;;;;;6067115;23;20212;-79
2022/09/19 04:22:03;;;;;;;4.72;3.85;;;12.90;99.90;;;;;;6069099;23;20550;-78
2022/09/19 04:24:33;;;;;;;4.90;4.05;;;12.90;99.90;;;;;;6068288;23;20494;-78
2022/09/19 04:27:06;;;;;;;6.72;4.40;;;13.00;99.90;;;;;;6068291;23;20200;-78
2022/09/19 04:29:38;;;;;;;6.25;4.20;;;12.90;99.90;;;;;;6067261;23;20660;-78
2022/09/19 04:32:05;;;;;;;3.88;3.58;;;13.00;99.90;;;;;;6068610;23;20200;-78
2022/09/19 04:34:33;;;;;;;7.95;4.88;;;12.90;99.90;;;;;;6067916;23;20700;-79
2022/09/19 04:37:02;;;;;;;4.40;4.00;;;13.00;99.90;;;;;;6068930;23;20251;-78
2022/09/19 04:39:29;;;;;;;4.97;4.15;;;13.00;99.90;;;;;;6067934;23;20215;-76
2022/09/19 04:41:59;;;;;;;5.97;5.47;;;13.00;99.90;;;;;;6068353;23;20208;-79
2022/09/19 04:44:29;;;;;;;8.30;7.43;;;13.00;99.90;;;;;;6067802;23;20223;-78
2022/09/19 04:46:56;;;;;;;10.55;8.80;;;13.00;99.90;;;;;;6068617;23;20214;-79
2022/09/19 04:49:38;;;;;;;10.48;8.07;;;13.00;99.90;;;;;;6068598;23;20263;-78
2022/09/19 04:52:12;;;;;;;6.22;4.20;;;13.00;99.90;;;;;;6069224;23;20545;-78
2022/09/19 04:54:39;;;;;;;7.18;5.38;;;13.00;99.90;;;;;;6068034;23;20200;-77
2022/09/19 04:57:07;;;;;;;4.47;4.07;;;13.00;99.90;;;;;;6068287;23;20657;-79
2022/09/19 04:59:36;;;;;;;4.47;4.07;;;13.00;99.90;;;;;;6068255;23;20212;-80
2022/09/19 05:02:05;;;;;;;8.10;7.40;;;13.00;99.90;;;;;;6068376;23;20202;-78
2022/09/19 05:04:32;;;;;;;6.13;5.50;;;13.10;99.90;;;;;;6053361;23;20275;-76
2022/09/19 05:06:59;;;;;;;7.78;4.82;;;13.10;99.90;;;;;;6068400;23;20516;-76
2022/09/19 05:09:27;;;;;;;3.92;3.60;;;13.10;99.90;;;;;;6067963;23;20692;-77
2022/09/19 05:11:56;;;;;;;3.45;3.20;;;13.10;99.90;;;;;;6053476;23;20223;-76
2022/09/19 05:14:25;;;;;;;8.85;5.47;;;13.10;99.90;;;;;;6067535;23;20206;-77
2022/09/19 05:16:54;;;;;;;7.05;5.00;;;13.10;99.90;;;;;;6068546;23;20200;-79
2022/09/19 05:19:22;;;;;;;5.30;4.80;;;13.10;99.90;;;;;;6067877;23;20208;-78
2022/09/19 05:21:50;;;;;;;4.35;4.05;;;13.10;99.90;;;;;;6068177;23;20207;-79
2022/09/19 05:24:19;;;;;;;5.88;4.63;;;13.10;99.90;;;;;;6068150;23;20215;-80
2022/09/19 05:26:49;;;;;;;4.38;4.00;;;13.20;99.90;;;;;;6068118;23;20211;-77
2022/09/19 05:29:17;;;;;;;3.90;3.60;;;13.20;99.90;;;;;;6067298;23;20232;-77
2022/09/19 05:31:45;;;;;;;4.43;4.00;;;13.20;99.90;;;;;;6066727;23;20230;-78
2022/09/19 05:34:13;;;;;;;4.30;3.97;;;13.20;99.90;;;;;;6068427;23;20655;-78
2022/09/19 05:36:41;;;;;;;5.53;5.13;;;13.20;99.90;;;;;;6067908;23;20216;-76
2022/09/19 05:39:09;;;;;;;3.08;2.88;;;13.20;99.90;;;;;;6068019;23;20263;-76
2022/09/19 05:41:38;;;;;;;4.35;3.60;;;13.30;99.90;;;;;;6067412;23;20231;-78
2022/09/19 05:44:05;;;;;;;3.83;3.53;;;13.30;99.90;;;;;;6067765;23;20212;-79
2022/09/19 05:46:31;;;;;;;4.63;4.22;;;13.30;99.90;;;;;;6067756;23;20232;-77
2022/09/19 05:48:59;;;;;;;4.78;4.35;;;13.30;99.90;;;;;;6068231;23;20234;-77
2022/09/19 05:51:27;;;;;;;4.03;3.45;;;13.30;99.90;;;;;;6067297;23;20208;-77
2022/09/19 05:53:54;;;;;;;5.28;4.38;;;13.30;99.90;;;;;;6069999;23;20196;-79
2022/09/19 05:56:27;;;;;;;4.03;3.47;;;13.30;99.90;;;;;;6069010;23;20224;-76
2022/09/19 05:58:54;;;;;;;7.35;4.28;;;13.30;99.90;;;;;;6069566;23;20519;-77
2022/09/19 06:01:21;;;;;;;4.60;3.60;;;13.40;99.90;;;;;;6070016;23;20208;-77
2022/09/19 06:03:49;;;;;;;3.70;3.40;;;13.40;99.90;;;;;;6069493;23;20204;-76
2022/09/19 06:06:19;;;;;;;5.47;3.30;;;13.40;99.90;;;;;;6069443;23;20200;-76
2022/09/19 06:08:55;;;;;;;3.78;3.00;;;13.40;99.90;;;;;;6069405;23;20203;-76
2022/09/19 06:11:23;;;;;;;3.55;3.25;;;13.50;99.90;;;;;;6069788;23;20568;-77
2022/09/19 06:16:34;;;;;;;4.57;2.90;;;13.50;99.90;;;;;;6068932;23;20218;-76
2022/09/19 06:19:02;;;;;;;4.32;2.85;;;13.50;99.90;;;;;;6070046;23;20208;-78
2022/09/19 06:21:31;;;;;;;4.75;3.70;;;13.50;99.90;;;;;;6069864;23;20208;-76
2022/09/19 06:23:59;;;;;;;3.25;2.95;;;13.60;99.90;;;;;;6031172;23;20521;-76
2022/09/19 06:26:26;;;;;;;4.13;2.90;;;13.60;99.90;;;;;;6069379;23;20668;-77
2022/09/19 06:28:53;;;;;;;2.70;2.50;;;13.60;99.90;;;;;;6068719;23;20200;-76
2022/09/19 06:31:20;;;;;;;4.88;2.80;;;13.60;99.90;;;;;;6069539;23;20567;-78
2022/09/19 06:33:47;;;;;;;3.65;3.03;;;13.60;99.90;;;;;;6069195;23;20581;-78
2022/09/19 06:36:14;;;;;;;3.40;2.90;;;13.60;99.90;;;;;;6069512;23;20208;-78
2022/09/19 06:38:43;;;;;;;2.45;2.22;;;13.70;99.90;;;;;;6068966;23;20215;-76
2022/09/19 06:41:11;;;;;;;3.35;2.65;;;13.70;99.90;;;;;;6069617;23;20224;-78
2022/09/19 06:43:38;;;;;;;3.78;2.55;;;13.70;99.90;;;;;;6068958;23;20667;-77
2022/09/19 06:46:06;;;;;;;4.27;3.90;;;13.70;99.90;;;;;;6070032;23;20208;-78
2022/09/19 06:48:35;;;;;;;3.80;3.03;;;13.80;99.90;;;;;;6069886;23;20447;-78
2022/09/19 06:51:02;;;;;;;3.33;3.13;;;13.80;99.90;;;;;;6065493;23;20499;-77
2022/09/19 06:53:34;;;;;;;3.90;3.22;;;13.80;99.90;;;;;;6068777;23;20208;-77
2022/09/19 06:56:01;;;;;;;2.83;2.28;;;13.80;99.90;;;;;;6068646;23;20208;-80
2022/09/19 06:58:31;;;;;;;4.90;2.75;;;13.80;99.90;;;;;;6069590;23;20275;-78
2022/09/19 07:01:01;;;;;;;4.80;3.53;;;13.80;99.90;;;;;;6068610;23;20256;-78
2022/09/19 07:03:28;;;;;;;4.53;2.78;;;13.80;99.90;;;;;;6068926;23;20490;-78
2022/09/19 07:05:59;;;;;;;4.28;3.15;;;13.80;99.90;;;;;;6069043;23;20267;-77
2022/09/19 07:08:30;;;;;;;4.10;2.78;;;13.90;99.90;;;;;;6069482;23;20283;-77
2022/09/19 07:10:58;;;;;;;2.80;2.50;;;13.90;99.90;;;;;;6068843;23;20204;-77
2022/09/19 07:13:38;;;;;;;5.30;3.05;;;13.90;99.90;;;;;;6055359;23;20601;-77
2022/09/19 07:16:06;;;;;;;3.80;3.00;;;14.00;99.90;;;;;;6068539;23;20644;-77
2022/09/19 07:18:35;;;;;;;3.53;2.88;;;14.00;99.90;;;;;;6069405;23;20790;-75
2022/09/19 07:21:02;;;;;;;2.87;2.40;;;14.10;99.90;;;;;;6068722;23;20215;-75
2022/09/19 07:23:29;;;;;;;5.80;2.50;;;14.10;99.90;;;;;;6069537;23;20440;-75
2022/09/19 07:25:57;;;;;;;4.97;3.20;;;14.20;99.90;;;;;;6068298;23;20199;-76
2022/09/19 07:28:26;;;;;;;2.60;1.80;;;14.20;99.90;;;;;;6069108;23;20448;-78
2022/09/19 07:30:55;;;;;;;3.20;2.30;;;14.30;99.90;;;;;;6068144;23;20652;-77
2022/09/19 07:33:23;;;;;;;5.33;2.50;;;14.30;99.90;;;;;;6068890;23;20441;-76
2022/09/19 07:35:52;;;;;;;6.27;2.23;;;14.30;99.90;;;;;;6068220;23;20437;-75
2022/09/19 07:38:21;;;;;;;3.03;2.23;;;14.30;99.90;;;;;;6069269;23;20440;-75
2022/09/19 07:40:48;;;;;;;3.20;2.03;;;14.40;99.90;;;;;;6067769;23;20519;-78
2022/09/19 07:43:17;;;;;;;2.10;1.77;;;14.40;99.90;;;;;;6069031;23;20440;-78
2022/09/19 07:45:45;;;;;;;3.37;2.70;;;14.50;99.90;;;;;;6069084;23;20445;-77
2022/09/19 07:48:14;;;;;;;4.83;1.73;;;14.50;99.90;;;;;;6069035;23;20452;-78
2022/09/19 07:50:41;;;;;;;2.10;1.90;;;14.50;99.90;;;;;;6069438;23;20440;-76
2022/09/19 07:53:11;;;;;;;2.20;1.77;;;14.60;99.90;;;;;;6068505;23;20470;-76
2022/09/19 07:55:38;;;;;;;3.00;1.67;;;14.60;99.90;;;;;;6068705;23;20820;-78
2022/09/19 07:58:06;;;;;;;3.37;1.97;;;14.70;99.90;;;;;;6068202;23;20448;-78
2022/09/19 08:00:36;;;;;;;3.33;1.93;;;14.70;99.90;;;;;;6068528;23;20797;-78
2022/09/19 08:03:09;;;;;;;2.37;2.17;;;14.80;99.90;;;;;;6068200;23;20472;-77
2022/09/19 08:05:39;;;;;;;3.77;2.50;;;14.80;99.90;;;;;;6069696;23;20480;-77
2022/09/19 08:08:07;;;;;;;5.23;3.20;;;14.90;99.90;;;;;;6067619;23;20440;-75
2022/09/19 08:10:35;;;;;;;9.13;5.60;;;14.90;99.90;;;;;;6068660;23;20492;-78
2022/09/19 08:13:02;;;;;;;7.37;4.60;;;15.00;99.90;;;;;;6069441;23;20444;-78
2022/09/19 08:15:33;;;;;;;8.00;4.60;;;15.10;99.90;;;;;;6069565;23;20516;-78
2022/09/19 08:18:02;;;;;;;4.77;2.90;;;15.10;99.90;;;;;;6068445;23;20451;-79
2022/09/19 08:20:31;;;;;;;4.93;2.27;;;15.10;99.90;;;;;;6067838;23;20441;-80
2022/09/19 08:23:01;;;;;;;2.47;2.10;;;15.20;99.90;;;;;;6068417;23;20444;-79
2022/09/19 08:25:31;;;;;;;3.80;2.10;;;15.30;99.90;;;;;;6068742;23;20444;-79
2022/09/19 08:27:58;;;;;;;3.53;1.73;;;15.30;99.90;;;;;;6068587;23;20512;-79
2022/09/19 08:30:26;;;;;;;3.70;1.80;;;15.40;99.90;;;;;;6070641;23;20448;-79
2022/09/19 08:32:56;;;;;;;4.23;1.83;;;15.40;99.90;;;;;;6071073;23;20455;-79
2022/09/19 08:35:24;;;;;;;1.67;1.30;;;15.40;99.90;;;;;;6072380;23;20437;-79
2022/09/19 08:37:54;;;;;;;3.10;1.33;;;15.50;99.90;;;;;;6075976;23;20441;-78
2022/09/19 08:40:27;;;;;;;2.73;1.77;;;15.60;99.90;;;;;;6069383;23;20463;-79
2022/09/19 08:43:09;;;;;;;6.03;1.77;;;15.60;99.90;;;;;;6068136;23;20444;-79
2022/09/19 08:45:59;;;;;;;3.43;2.00;;;15.60;99.90;;;;;;6068907;23;20447;-77
2022/09/19 08:48:30;;;;;;;3.50;3.20;;;15.60;99.90;;;;;;6068396;23;20436;-79
2022/09/19 08:51:02;;;;;;;6.50;4.60;;;15.70;99.90;;;;;;6068574;23;20456;-79
2022/09/19 08:53:34;;;;;;;4.77;2.87;;;15.70;99.90;;;;;;6068161;23;20440;-79
2022/09/19 08:56:03;;;;;;;1.90;1.70;;;15.80;99.90;;;;;;6068064;23;20460;-79
2022/09/19 08:58:35;;;;;;;2.20;1.50;;;15.80;99.90;;;;;;6067756;23;20461;-79
2022/09/19 09:01:08;;;;;;;1.87;1.73;;;15.90;99.90;;;;;;6068540;23;20444;-79
2022/09/19 09:03:42;;;;;;;3.37;1.30;;;15.90;99.90;;;;;;6068131;23;20499;-79
2022/09/19 09:06:23;;;;;;;2.10;1.63;;;15.90;99.90;;;;;;6068034;23;20437;-79
2022/09/19 09:09:00;;;;;;;1.47;1.37;;;16.00;99.90;;;;;;6066419;23;20507;-77
2022/09/19 09:11:38;;;;;;;1.07;0.97;;;16.00;99.90;;;;;;6067390;23;20437;-79
2022/09/19 09:14:21;;;;;;;1.33;1.20;;;16.10;99.90;;;;;;6068578;23;20499;-79
2022/09/19 09:17:03;;;;;;;1.77;1.07;;;16.10;99.90;;;;;;6067694;23;20444;-79
2022/09/19 09:20:19;;;;;;;1.53;1.10;;;16.20;99.90;;;;;;6067688;23;20449;-77
2022/09/19 09:22:50;;;;;;;2.37;1.47;;;16.30;99.90;;;;;;6008827;23;21909;-79
2022/09/19 09:25:24;;;;;;;1.60;1.50;;;16.30;99.90;;;;;;6063770;23;20702;-76
2022/09/19 09:27:57;;;;;;;1.40;1.10;;;16.40;99.90;;;;;;6069512;23;20460;-79
2022/09/19 09:30:26;;;;;;;2.00;1.20;;;16.50;99.90;;;;;;6070247;23;20465;-77
2022/09/19 09:32:58;;;;;;;1.83;1.70;;;16.60;99.90;;;;;;6069304;23;20429;-77
2022/09/19 09:35:35;;;;;;;2.30;1.53;;;16.60;99.90;;;;;;6070130;23;20440;-77
2022/09/19 09:38:13;;;;;;;2.63;1.30;;;16.70;99.90;;;;;;6069826;23;20437;-79
2022/09/19 09:43:41;;;;;;;3.23;1.67;;;16.90;99.90;;;;;;6070196;23;20452;-77
2022/09/19 09:46:15;;;;;;;2.03;1.93;;;16.90;99.90;;;;;;6069992;23;20449;-75
2022/09/19 09:48:44;;;;;;;4.23;1.50;;;17.00;99.90;;;;;;6069519;23;20517;-76
2022/09/19 09:51:25;;;;;;;3.60;1.90;;;17.00;99.90;;;;;;6069122;23;20504;-78
2022/09/19 09:56:14;;;;;;;4.43;3.50;;;17.10;99.90;;;;;;6069392;23;20439;-78
2022/09/19 09:57:02;;;;;;;3.70;2.20;;;17.10;99.90;;;;;;6069524;23;20440;-78
2022/09/19 10:05:33;;;;;;;2.80;1.20;;;16.80;99.90;;;;;;6069803;23;20447;-76
2022/09/19 10:08:14;;;;;;;2.83;1.77;;;16.60;99.90;;;;;;6069910;23;20778;-78
2022/09/19 10:10:45;;;;;;;3.10;1.37;;;16.40;99.90;;;;;;6069143;23;20756;-75
2022/09/19 10:13:33;;;;;;;1.40;1.20;;;16.20;99.90;;;;;;6069970;23;20464;-75
2022/09/19 10:16:03;;;;;;;1.10;0.90;;;16.00;99.90;;;;;;6070152;23;20748;-77
2022/09/19 10:18:38;;;;;;;1.50;1.10;;;15.90;99.90;;;;;;6070036;23;20444;-78
2022/09/19 10:21:05;;;;;;;2.70;1.30;;;15.80;99.90;;;;;;6068986;23;20436;-78
2022/09/19 10:23:48;;;;;;;3.67;1.20;;;15.70;99.90;;;;;;6069748;23;20451;-79
2022/09/19 10:26:19;;;;;;;1.50;1.33;;;15.50;99.90;;;;;;6068856;23;20793;-79
2022/09/19 10:28:52;;;;;;;0.97;0.80;;;15.30;99.90;;;;;;6068556;23;20440;-78
2022/09/19 10:31:33;;;;;;;1.27;1.07;;;15.20;99.90;;;;;;6069393;23;20507;-77
2022/09/19 10:34:04;;;;;;;1.80;0.87;;;15.00;99.90;;;;;;6069011;23;20440;-77
2022/09/19 10:36:34;;;;;;;2.90;1.23;;;14.90;99.90;;;;;;6068099;23;20436;-76
2022/09/19 10:39:09;;;;;;;1.90;1.47;;;14.80;99.90;;;;;;6069315;23;20436;-77
2022/09/19 10:41:38;;;;;;;3.87;1.10;;;14.60;99.90;;;;;;6066685;23;20736;-76
2022/09/19 10:44:08;;;;;;;1.93;1.30;;;14.40;99.90;;;;;;6068617;23;20468;-77
2022/09/19 10:46:44;;;;;;;1.97;1.23;;;14.30;99.90;;;;;;6069094;23;20432;-77
2022/09/19 10:49:20;;;;;;;1.27;1.00;;;14.10;99.90;;;;;;6069379;23;20915;-77
2022/09/19 10:51:50;;;;;;;1.55;0.90;;;14.00;99.90;;;;;;6069040;23;20436;-78
2022/09/19 10:54:31;;;;;;;2.50;0.90;;;13.90;99.90;;;;;;6043216;23;20279;-77
2022/09/19 10:57:00;;;;;;;2.22;1.02;;;13.90;99.90;;;;;;6069091;23;20429;-76
2022/09/19 10:59:36;;;;;;;4.32;2.15;;;13.80;99.90;;;;;;6068339;23;20275;-77
2022/09/19 11:02:21;;;;;;;4.07;2.20;;;13.70;99.90;;;;;;6068844;23;20207;-77
2022/09/19 11:05:00;;;;;;;3.38;1.90;;;13.70;99.90;;;;;;6068991;23;20208;-77
2022/09/19 11:07:35;;;;;;;2.38;1.80;;;13.60;99.90;;;;;;6074792;23;20234;-76
2022/09/19 11:10:28;;;;;;;2.30;1.90;;;13.60;99.90;;;;;;6068937;23;20203;-77
2022/09/19 11:13:06;;;;;;;2.03;1.83;;;13.60;99.90;;;;;;6068571;23;20208;-77
2022/09/19 11:15:41;;;;;;;2.25;1.95;;;13.70;99.90;;;;;;6069511;23;20204;-76
2022/09/19 11:18:18;;;;;;;3.20;2.20;;;13.70;99.90;;;;;;6068798;23;20672;-78
2022/09/19 11:20:58;;;;;;;2.22;1.60;;;13.80;99.90;;;;;;6068768;23;20200;-77
2022/09/19 11:23:56;;;;;;;2.63;1.80;;;13.90;99.90;;;;;;6069374;23;20707;-78
2022/09/19 11:26:42;;;;;;;3.00;1.70;;;14.10;99.90;;;;;;6069110;23;20541;-78
2022/09/19 11:29:44;;;;;;;2.63;1.80;;;14.20;99.90;;;;;;6068818;23;20200;-78
2022/09/19 11:32:22;;;;;;;2.10;1.90;;;14.40;99.90;;;;;;6068728;23;20435;-76
2022/09/19 11:34:58;;;;;;;1.53;1.43;;;14.50;99.90;;;;;;6054358;23;20436;-76
2022/09/19 11:37:41;;;;;;;1.60;1.50;;;14.70;99.90;;;;;;6068342;23;20446;-79
2022/09/19 11:40:23;;;;;;;1.73;1.63;;;14.80;99.90;;;;;;6068981;23;20893;-76
2022/09/19 11:43:02;;;;;;;1.30;1.20;;;14.90;99.90;;;;;;6068094;23;20460;-78
2022/09/19 11:45:37;;;;;;;1.30;1.20;;;15.00;99.90;;;;;;6067847;23;20439;-78
2022/09/19 11:48:24;;;;;;;1.60;1.50;;;15.10;99.90;;;;;;6069087;23;20506;-77
2022/09/19 11:51:02;;;;;;;1.40;1.30;;;15.20;99.90;;;;;;6068707;23;20432;-77
2022/09/19 11:53:44;;;;;;;1.70;1.43;;;15.30;99.90;;;;;;6068954;23;20518;-77
2022/09/19 11:56:23;;;;;;;1.80;1.70;;;15.40;99.90;;;;;;6068348;23;20491;-78
2022/09/19 11:59:01;;;;;;;3.53;1.50;;;15.50;99.90;;;;;;6068522;23;20524;-78
2022/09/19 12:01:41;;;;;;;4.00;3.70;;;15.60;99.90;;;;;;6056968;23;20452;-78
2022/09/19 12:04:25;;;;;;;9.37;3.60;;;15.70;99.90;;;;;;6069568;23;20455;-77
2022/09/19 12:07:08;;;;;;;9.13;3.23;;;15.60;99.90;;;;;;6069268;23;20432;-78
2022/09/19 12:09:38;;;;;;;7.13;2.47;;;15.50;99.90;;;;;;6069120;23;20538;-77
2022/09/19 12:12:11;;;;;;;5.27;2.23;;;15.40;99.90;;;;;;6068701;23;20437;-77
2022/09/19 12:14:43;;;;;;;1.90;1.27;;;15.20;99.90;;;;;;6067959;23;20437;-77
2022/09/19 12:17:16;;;;;;;3.50;3.17;;;15.10;99.90;;;;;;6068858;23;20761;-77
2022/09/19 12:19:48;;;;;;;3.13;2.42;;;14.90;99.90;;;;;;6067801;23;20463;-77
2022/09/19 12:22:19;;;;;;;3.33;2.40;;;14.80;99.90;;;;;;6069032;23;20216;-77
2022/09/19 12:24:52;;;;;;;2.07;1.20;;;14.70;99.90;;;;;;6068209;23;20440;-78
2022/09/19 12:27:27;;;;;;;1.87;1.37;;;14.60;99.90;;;;;;6069064;23;20732;-77
2022/09/19 12:30:05;;;;;;;3.30;1.43;;;14.50;99.90;;;;;;6054241;23;20806;-78
2022/09/19 12:32:41;;;;;;;1.30;1.20;;;14.40;99.90;;;;;;6067652;23;20440;-77
2022/09/19 12:35:18;;;;;;;1.50;1.17;;;14.40;99.90;;;;;;6067633;23;20741;-77
2022/09/19 12:37:59;;;;;;;2.20;1.50;;;14.30;99.90;;;;;;6067766;23;20769;-77
2022/09/19 12:40:34;;;;;;;2.57;1.53;;;14.30;99.90;;;;;;6068089;23;20204;-79
2022/09/19 12:43:38;;;;;;;2.00;1.80;;;14.20;99.90;;;;;;6067603;23;20495;-76
2022/09/19 12:46:27;;;;;;;1.93;1.50;;;14.20;99.90;;;;;;6067349;23;20432;-77
2022/09/19 12:49:01;;;;;;;2.50;2.00;;;14.20;99.90;;;;;;6067971;23;20909;-78
2022/09/19 12:51:42;;;;;;;3.05;2.13;;;14.20;99.90;;;;;;6068759;23;20519;-75
2022/09/19 12:54:25;;;;;;;2.08;1.98;;;14.20;99.90;;;;;;6066525;23;20236;-77
2022/09/19 12:56:58;;;;;;;3.50;2.50;;;14.20;99.90;;;;;;6067877;23;20309;-77
2022/09/19 12:59:27;;;;;;;2.03;1.70;;;14.20;99.90;;;;;;6068256;23;20440;-76
2022/09/19 13:01:57;;;;;;;2.88;2.20;;;14.20;99.90;;;;;;6067331;23;20247;-77
2022/09/19 13:04:34;;;;;;;2.30;2.10;;;14.20;99.90;;;;;;6053434;23;20506;-78
2022/09/19 13:07:10;;;;;;;1.60;1.33;;;14.20;99.90;;;;;;6067822;23;20511;-78
2022/09/19 13:09:49;;;;;;;2.92;2.22;;;14.10;99.90;;;;;;6068511;23;20451;-78
2022/09/19 13:12:22;;;;;;;1.50;1.40;;;14.10;99.90;;;;;;6067390;23;20231;-76
2022/09/19 13:14:55;;;;;;;1.67;1.58;;;14.10;99.90;;;;;;6068170;23;20517;-77
2022/09/19 13:25:51;;;;;;;2.23;2.00;;;14.10;99.90;;;;;;6055964;23;20446;-77
2022/09/19 13:28:30;;;;;;;2.37;1.40;;;14.10;99.90;;;;;;6067962;23;20440;-77
2022/09/19 13:31:11;;;;;;;2.97;1.90;;;14.20;99.90;;;;;;6068288;23;20440;-77
2022/09/19 13:33:45;;;;;;;2.30;1.70;;;14.20;99.90;;;;;;6067888;23;20223;-77
2022/09/19 13:36:14;;;;;;;1.90;1.43;;;14.20;99.90;;;;;;6067856;23;20204;-77
2022/09/19 13:38:44;;;;;;;1.70;1.60;;;14.20;99.90;;;;;;6067228;23;20447;-76
2022/09/19 13:41:21;;;;;;;2.13;1.92;;;14.20;99.90;;;;;;6068125;23;20204;-76
2022/09/19 13:44:00;;;;;;;2.00;1.80;;;14.20;99.90;;;;;;6067643;23;20246;-79